sensor_id;sensor_type;location;lat;lon;timestamp;P1;durP1;ratioP1;P2;durP2;ratioP2
36291;SDS011;22327;51.208;6.418;2023-08-07T00:02:51;5.95;;;2.22;;
36291;SDS011;22327;51.208;6.418;2023-08-07T00:05:51;8.30;;;2.75;;
36291;SDS011;22327;51.208;6.418;2023-08-07T00:08:52;9.02;;;2.05;;
36291;SDS011;22327;51.208;6.418;2023-08-07T00:11:52;7.72;;;3.28;;
36291;SDS011;22327;51.208;6.418;2023-08-07T00:14:53;8.73;;;3.00;;
36291;SDS011;22327;51.208;6.418;2023-08-07T00:17:53;10.13;;;2.58;;
36291;SDS011;22327;51.208;6.418;2023-08-07T00:20:54;4.20;;;2.13;;
36291;SDS011;22327;51.208;6.418;2023-08-07T00:23:54;9.32;;;2.55;;
36291;SDS011;22327;51.208;6.418;2023-08-07T00:26:55;5.65;;;2.28;;
36291;SDS011;22327;51.208;6.418;2023-08-07T00:29:56;11.88;;;2.80;;
36291;SDS011;22327;51.208;6.418;2023-08-07T00:32:56;7.05;;;2.00;;
36291;SDS011;22327;51.208;6.418;2023-08-07T00:35:57;10.95;;;2.92;;
36291;SDS011;22327;51.208;6.418;2023-08-07T00:38:57;5.65;;;2.33;;
36291;SDS011;22327;51.208;6.418;2023-08-07T00:41:58;9.82;;;3.03;;
36291;SDS011;22327;51.208;6.418;2023-08-07T00:44:58;8.93;;;2.70;;
36291;SDS011;22327;51.208;6.418;2023-08-07T00:48:01;8.13;;;2.38;;
36291;SDS011;22327;51.208;6.418;2023-08-07T00:51:02;7.55;;;2.70;;
36291;SDS011;22327;51.208;6.418;2023-08-07T00:54:04;9.90;;;2.40;;
36291;SDS011;22327;51.208;6.418;2023-08-07T00:57:11;10.87;;;2.57;;
36291;SDS011;22327;51.208;6.418;2023-08-07T01:00:13;5.70;;;2.35;;
36291;SDS011;22327;51.208;6.418;2023-08-07T01:03:14;6.38;;;2.40;;
36291;SDS011;22327;51.208;6.418;2023-08-07T01:06:15;10.13;;;2.47;;
36291;SDS011;22327;51.208;6.418;2023-08-07T01:09:15;11.85;;;2.67;;
36291;SDS011;22327;51.208;6.418;2023-08-07T01:12:20;5.70;;;2.78;;
36291;SDS011;22327;51.208;6.418;2023-08-07T01:15:30;10.88;;;2.75;;
36291;SDS011;22327;51.208;6.418;2023-08-07T01:18:34;8.93;;;1.98;;
36291;SDS011;22327;51.208;6.418;2023-08-07T01:21:36;8.82;;;3.33;;
36291;SDS011;22327;51.208;6.418;2023-08-07T01:24:38;14.00;;;3.30;;
36291;SDS011;22327;51.208;6.418;2023-08-07T01:27:51;8.13;;;2.60;;
36291;SDS011;22327;51.208;6.418;2023-08-07T01:31:02;9.82;;;2.88;;
36291;SDS011;22327;51.208;6.418;2023-08-07T01:34:05;9.82;;;2.58;;
36291;SDS011;22327;51.208;6.418;2023-08-07T01:37:08;11.50;;;2.73;;
36291;SDS011;22327;51.208;6.418;2023-08-07T01:40:12;13.38;;;3.53;;
36291;SDS011;22327;51.208;6.418;2023-08-07T01:43:14;10.32;;;2.90;;
36291;SDS011;22327;51.208;6.418;2023-08-07T01:46:14;7.40;;;2.65;;
36291;SDS011;22327;51.208;6.418;2023-08-07T01:49:15;11.90;;;3.17;;
36291;SDS011;22327;51.208;6.418;2023-08-07T01:52:15;13.00;;;2.67;;
36291;SDS011;22327;51.208;6.418;2023-08-07T01:55:16;8.93;;;2.97;;
36291;SDS011;22327;51.208;6.418;2023-08-07T01:58:17;11.07;;;2.55;;
36291;SDS011;22327;51.208;6.418;2023-08-07T02:01:18;10.52;;;3.20;;
36291;SDS011;22327;51.208;6.418;2023-08-07T02:04:18;7.63;;;2.30;;
36291;SDS011;22327;51.208;6.418;2023-08-07T02:07:19;13.13;;;2.72;;
36291;SDS011;22327;51.208;6.418;2023-08-07T02:10:19;10.30;;;2.70;;
36291;SDS011;22327;51.208;6.418;2023-08-07T02:13:20;7.15;;;2.28;;
36291;SDS011;22327;51.208;6.418;2023-08-07T02:16:20;12.20;;;2.70;;
36291;SDS011;22327;51.208;6.418;2023-08-07T02:19:21;9.15;;;2.35;;
36291;SDS011;22327;51.208;6.418;2023-08-07T02:22:21;9.20;;;2.70;;
36291;SDS011;22327;51.208;6.418;2023-08-07T02:25:22;10.13;;;2.55;;
36291;SDS011;22327;51.208;6.418;2023-08-07T02:28:22;11.30;;;3.65;;
36291;SDS011;22327;51.208;6.418;2023-08-07T02:31:23;6.43;;;2.50;;
36291;SDS011;22327;51.208;6.418;2023-08-07T02:34:24;10.82;;;2.90;;
36291;SDS011;22327;51.208;6.418;2023-08-07T02:37:24;8.27;;;2.40;;
36291;SDS011;22327;51.208;6.418;2023-08-07T02:40:24;8.95;;;2.50;;
36291;SDS011;22327;51.208;6.418;2023-08-07T02:43:25;9.90;;;2.50;;
36291;SDS011;22327;51.208;6.418;2023-08-07T02:46:27;8.32;;;2.42;;
36291;SDS011;22327;51.208;6.418;2023-08-07T02:49:27;7.50;;;2.05;;
36291;SDS011;22327;51.208;6.418;2023-08-07T02:52:28;10.07;;;2.22;;
36291;SDS011;22327;51.208;6.418;2023-08-07T02:55:29;12.60;;;3.45;;
36291;SDS011;22327;51.208;6.418;2023-08-07T02:58:29;11.68;;;2.05;;
36291;SDS011;22327;51.208;6.418;2023-08-07T03:01:30;10.02;;;2.42;;
36291;SDS011;22327;51.208;6.418;2023-08-07T03:04:30;8.27;;;2.50;;
36291;SDS011;22327;51.208;6.418;2023-08-07T03:07:31;6.97;;;2.38;;
36291;SDS011;22327;51.208;6.418;2023-08-07T03:10:31;6.88;;;2.30;;
36291;SDS011;22327;51.208;6.418;2023-08-07T03:13:32;7.60;;;2.13;;
36291;SDS011;22327;51.208;6.418;2023-08-07T03:16:32;5.00;;;2.00;;
36291;SDS011;22327;51.208;6.418;2023-08-07T03:19:33;6.30;;;1.80;;
36291;SDS011;22327;51.208;6.418;2023-08-07T03:22:33;7.68;;;2.13;;
36291;SDS011;22327;51.208;6.418;2023-08-07T03:25:34;10.07;;;2.30;;
36291;SDS011;22327;51.208;6.418;2023-08-07T03:28:35;7.90;;;2.40;;
36291;SDS011;22327;51.208;6.418;2023-08-07T03:31:35;8.07;;;2.22;;
36291;SDS011;22327;51.208;6.418;2023-08-07T03:34:36;7.97;;;2.08;;
36291;SDS011;22327;51.208;6.418;2023-08-07T03:37:37;6.40;;;1.85;;
36291;SDS011;22327;51.208;6.418;2023-08-07T03:40:37;9.50;;;2.20;;
36291;SDS011;22327;51.208;6.418;2023-08-07T03:43:38;5.78;;;2.40;;
36291;SDS011;22327;51.208;6.418;2023-08-07T03:46:38;5.30;;;1.80;;
36291;SDS011;22327;51.208;6.418;2023-08-07T03:49:39;7.40;;;2.47;;
36291;SDS011;22327;51.208;6.418;2023-08-07T03:52:39;9.75;;;2.22;;
36291;SDS011;22327;51.208;6.418;2023-08-07T03:55:40;8.07;;;2.78;;
36291;SDS011;22327;51.208;6.418;2023-08-07T03:58:41;6.43;;;1.92;;
36291;SDS011;22327;51.208;6.418;2023-08-07T04:01:42;12.38;;;2.72;;
36291;SDS011;22327;51.208;6.418;2023-08-07T04:04:43;6.75;;;1.90;;
36291;SDS011;22327;51.208;6.418;2023-08-07T04:07:43;7.57;;;2.05;;
36291;SDS011;22327;51.208;6.418;2023-08-07T04:10:44;6.45;;;2.70;;
36291;SDS011;22327;51.208;6.418;2023-08-07T04:13:44;6.45;;;1.77;;
36291;SDS011;22327;51.208;6.418;2023-08-07T04:16:45;7.50;;;2.15;;
36291;SDS011;22327;51.208;6.418;2023-08-07T04:23:12;8.90;;;2.13;;
36291;SDS011;22327;51.208;6.418;2023-08-07T04:26:12;5.30;;;2.10;;
36291;SDS011;22327;51.208;6.418;2023-08-07T04:29:14;8.27;;;3.28;;
36291;SDS011;22327;51.208;6.418;2023-08-07T04:32:14;7.40;;;2.00;;
36291;SDS011;22327;51.208;6.418;2023-08-07T04:35:15;6.90;;;2.17;;
36291;SDS011;22327;51.208;6.418;2023-08-07T04:38:16;7.40;;;2.28;;
36291;SDS011;22327;51.208;6.418;2023-08-07T04:41:17;9.45;;;2.33;;
36291;SDS011;22327;51.208;6.418;2023-08-07T04:44:17;5.47;;;1.98;;
36291;SDS011;22327;51.208;6.418;2023-08-07T04:47:18;8.05;;;2.45;;
36291;SDS011;22327;51.208;6.418;2023-08-07T04:50:18;6.88;;;2.47;;
36291;SDS011;22327;51.208;6.418;2023-08-07T04:53:19;10.82;;;2.97;;
36291;SDS011;22327;51.208;6.418;2023-08-07T04:56:19;7.53;;;2.70;;
36291;SDS011;22327;51.208;6.418;2023-08-07T04:59:20;7.25;;;2.40;;
36291;SDS011;22327;51.208;6.418;2023-08-07T05:02:20;7.70;;;2.60;;
36291;SDS011;22327;51.208;6.418;2023-08-07T05:05:21;6.85;;;2.17;;
36291;SDS011;22327;51.208;6.418;2023-08-07T05:08:21;10.15;;;3.55;;
36291;SDS011;22327;51.208;6.418;2023-08-07T05:11:22;9.00;;;2.67;;
36291;SDS011;22327;51.208;6.418;2023-08-07T05:14:22;10.90;;;3.00;;
36291;SDS011;22327;51.208;6.418;2023-08-07T05:17:23;8.68;;;2.08;;
36291;SDS011;22327;51.208;6.418;2023-08-07T05:20:23;10.55;;;2.40;;
36291;SDS011;22327;51.208;6.418;2023-08-07T05:23:24;7.47;;;2.88;;
36291;SDS011;22327;51.208;6.418;2023-08-07T05:26:24;5.57;;;2.03;;
36291;SDS011;22327;51.208;6.418;2023-08-07T05:29:25;6.07;;;2.40;;
36291;SDS011;22327;51.208;6.418;2023-08-07T05:32:25;9.23;;;2.40;;
36291;SDS011;22327;51.208;6.418;2023-08-07T05:35:26;6.43;;;2.33;;
36291;SDS011;22327;51.208;6.418;2023-08-07T05:38:27;6.93;;;2.72;;
36291;SDS011;22327;51.208;6.418;2023-08-07T05:41:27;8.48;;;2.70;;
36291;SDS011;22327;51.208;6.418;2023-08-07T05:44:28;6.35;;;2.35;;
36291;SDS011;22327;51.208;6.418;2023-08-07T05:47:29;12.30;;;2.60;;
36291;SDS011;22327;51.208;6.418;2023-08-07T05:50:30;6.32;;;2.38;;
36291;SDS011;22327;51.208;6.418;2023-08-07T05:53:30;10.85;;;2.75;;
36291;SDS011;22327;51.208;6.418;2023-08-07T05:56:31;12.73;;;2.67;;
36291;SDS011;22327;51.208;6.418;2023-08-07T05:59:31;9.25;;;2.80;;
36291;SDS011;22327;51.208;6.418;2023-08-07T06:02:34;8.85;;;2.83;;
36291;SDS011;22327;51.208;6.418;2023-08-07T06:05:35;9.80;;;3.00;;
36291;SDS011;22327;51.208;6.418;2023-08-07T06:08:35;10.27;;;3.22;;
36291;SDS011;22327;51.208;6.418;2023-08-07T06:11:36;12.48;;;4.20;;
36291;SDS011;22327;51.208;6.418;2023-08-07T06:14:37;8.45;;;3.00;;
36291;SDS011;22327;51.208;6.418;2023-08-07T06:17:38;9.50;;;3.53;;
36291;SDS011;22327;51.208;6.418;2023-08-07T06:20:39;13.50;;;3.63;;
36291;SDS011;22327;51.208;6.418;2023-08-07T06:23:40;10.40;;;3.17;;
36291;SDS011;22327;51.208;6.418;2023-08-07T06:26:40;14.40;;;3.65;;
36291;SDS011;22327;51.208;6.418;2023-08-07T06:29:41;12.02;;;3.20;;
36291;SDS011;22327;51.208;6.418;2023-08-07T06:32:41;11.68;;;3.60;;
36291;SDS011;22327;51.208;6.418;2023-08-07T06:35:42;12.52;;;3.42;;
36291;SDS011;22327;51.208;6.418;2023-08-07T06:38:42;7.93;;;3.00;;
36291;SDS011;22327;51.208;6.418;2023-08-07T06:41:43;8.63;;;3.70;;
36291;SDS011;22327;51.208;6.418;2023-08-07T06:44:43;11.23;;;3.35;;
36291;SDS011;22327;51.208;6.418;2023-08-07T06:47:44;10.85;;;3.50;;
36291;SDS011;22327;51.208;6.418;2023-08-07T06:50:48;8.48;;;3.13;;
36291;SDS011;22327;51.208;6.418;2023-08-07T06:53:49;10.70;;;3.28;;
36291;SDS011;22327;51.208;6.418;2023-08-07T06:56:50;8.93;;;3.33;;
36291;SDS011;22327;51.208;6.418;2023-08-07T06:59:50;13.55;;;3.50;;
36291;SDS011;22327;51.208;6.418;2023-08-07T07:02:51;12.73;;;5.00;;
36291;SDS011;22327;51.208;6.418;2023-08-07T07:05:51;13.82;;;3.25;;
36291;SDS011;22327;51.208;6.418;2023-08-07T07:08:53;10.18;;;3.40;;
36291;SDS011;22327;51.208;6.418;2023-08-07T07:11:56;15.30;;;3.07;;
36291;SDS011;22327;51.208;6.418;2023-08-07T07:14:56;13.52;;;4.45;;
36291;SDS011;22327;51.208;6.418;2023-08-07T07:17:57;13.38;;;3.60;;
36291;SDS011;22327;51.208;6.418;2023-08-07T07:20:58;13.30;;;3.17;;
36291;SDS011;22327;51.208;6.418;2023-08-07T07:23:58;10.02;;;3.78;;
36291;SDS011;22327;51.208;6.418;2023-08-07T07:26:59;10.18;;;3.25;;
36291;SDS011;22327;51.208;6.418;2023-08-07T07:30:00;11.45;;;3.78;;
36291;SDS011;22327;51.208;6.418;2023-08-07T07:33:00;10.18;;;3.17;;
36291;SDS011;22327;51.208;6.418;2023-08-07T07:36:01;7.38;;;2.83;;
36291;SDS011;22327;51.208;6.418;2023-08-07T07:39:02;8.65;;;2.97;;
36291;SDS011;22327;51.208;6.418;2023-08-07T07:42:02;9.20;;;2.97;;
36291;SDS011;22327;51.208;6.418;2023-08-07T07:45:04;9.70;;;3.03;;
36291;SDS011;22327;51.208;6.418;2023-08-07T07:48:05;8.02;;;3.08;;
36291;SDS011;22327;51.208;6.418;2023-08-07T07:51:08;12.32;;;3.45;;
36291;SDS011;22327;51.208;6.418;2023-08-07T07:54:08;8.40;;;2.45;;
36291;SDS011;22327;51.208;6.418;2023-08-07T07:57:09;11.40;;;2.90;;
36291;SDS011;22327;51.208;6.418;2023-08-07T08:00:09;11.10;;;2.60;;
36291;SDS011;22327;51.208;6.418;2023-08-07T08:03:10;7.93;;;2.83;;
36291;SDS011;22327;51.208;6.418;2023-08-07T08:06:12;7.88;;;2.20;;
36291;SDS011;22327;51.208;6.418;2023-08-07T08:09:13;10.38;;;2.85;;
36291;SDS011;22327;51.208;6.418;2023-08-07T08:12:13;10.40;;;3.22;;
36291;SDS011;22327;51.208;6.418;2023-08-07T08:15:14;4.32;;;2.33;;
36291;SDS011;22327;51.208;6.418;2023-08-07T08:18:15;5.18;;;1.83;;
36291;SDS011;22327;51.208;6.418;2023-08-07T08:21:15;4.95;;;1.55;;
36291;SDS011;22327;51.208;6.418;2023-08-07T08:24:15;8.23;;;2.03;;
36291;SDS011;22327;51.208;6.418;2023-08-07T08:27:16;5.53;;;1.83;;
36291;SDS011;22327;51.208;6.418;2023-08-07T08:30:17;4.32;;;1.90;;
36291;SDS011;22327;51.208;6.418;2023-08-07T08:33:18;4.72;;;2.03;;
36291;SDS011;22327;51.208;6.418;2023-08-07T08:36:18;5.03;;;1.60;;
36291;SDS011;22327;51.208;6.418;2023-08-07T08:39:19;4.63;;;1.30;;
36291;SDS011;22327;51.208;6.418;2023-08-07T08:42:19;6.28;;;1.45;;
36291;SDS011;22327;51.208;6.418;2023-08-07T08:45:20;6.53;;;1.60;;
36291;SDS011;22327;51.208;6.418;2023-08-07T08:48:22;7.97;;;1.30;;
36291;SDS011;22327;51.208;6.418;2023-08-07T08:51:24;5.18;;;1.35;;
36291;SDS011;22327;51.208;6.418;2023-08-07T08:54:25;6.50;;;2.28;;
36291;SDS011;22327;51.208;6.418;2023-08-07T08:57:26;4.70;;;1.83;;
36291;SDS011;22327;51.208;6.418;2023-08-07T09:00:28;3.50;;;1.20;;
36291;SDS011;22327;51.208;6.418;2023-08-07T09:03:30;3.15;;;1.05;;
36291;SDS011;22327;51.208;6.418;2023-08-07T09:06:31;5.30;;;1.35;;
36291;SDS011;22327;51.208;6.418;2023-08-07T09:09:32;10.10;;;1.35;;
36291;SDS011;22327;51.208;6.418;2023-08-07T09:12:33;4.13;;;1.20;;
36291;SDS011;22327;51.208;6.418;2023-08-07T09:15:37;6.20;;;1.27;;
36291;SDS011;22327;51.208;6.418;2023-08-07T09:18:39;3.90;;;1.02;;
36291;SDS011;22327;51.208;6.418;2023-08-07T09:21:40;3.97;;;1.42;;
36291;SDS011;22327;51.208;6.418;2023-08-07T09:24:41;3.70;;;1.48;;
36291;SDS011;22327;51.208;6.418;2023-08-07T09:27:41;4.15;;;1.27;;
36291;SDS011;22327;51.208;6.418;2023-08-07T09:30:42;8.23;;;1.13;;
36291;SDS011;22327;51.208;6.418;2023-08-07T09:33:46;6.10;;;1.65;;
36291;SDS011;22327;51.208;6.418;2023-08-07T09:36:47;3.55;;;1.23;;
36291;SDS011;22327;51.208;6.418;2023-08-07T09:39:47;3.22;;;1.00;;
36291;SDS011;22327;51.208;6.418;2023-08-07T09:42:52;4.07;;;1.48;;
36291;SDS011;22327;51.208;6.418;2023-08-07T09:46:01;6.00;;;1.42;;
36291;SDS011;22327;51.208;6.418;2023-08-07T09:49:05;2.10;;;0.98;;
36291;SDS011;22327;51.208;6.418;2023-08-07T09:52:06;4.38;;;1.50;;
36291;SDS011;22327;51.208;6.418;2023-08-07T09:55:07;2.70;;;1.05;;
36291;SDS011;22327;51.208;6.418;2023-08-07T09:58:08;1.92;;;0.95;;
36291;SDS011;22327;51.208;6.418;2023-08-07T10:01:11;3.35;;;0.63;;
36291;SDS011;22327;51.208;6.418;2023-08-07T10:04:12;5.22;;;1.60;;
36291;SDS011;22327;51.208;6.418;2023-08-07T10:07:15;3.17;;;1.08;;
36291;SDS011;22327;51.208;6.418;2023-08-07T10:10:16;3.85;;;1.02;;
36291;SDS011;22327;51.208;6.418;2023-08-07T10:13:17;5.30;;;1.67;;
36291;SDS011;22327;51.208;6.418;2023-08-07T10:16:19;5.18;;;1.05;;
36291;SDS011;22327;51.208;6.418;2023-08-07T10:19:19;5.88;;;1.30;;
36291;SDS011;22327;51.208;6.418;2023-08-07T10:22:20;2.70;;;1.20;;
36291;SDS011;22327;51.208;6.418;2023-08-07T10:25:24;4.55;;;1.25;;
36291;SDS011;22327;51.208;6.418;2023-08-07T10:28:27;6.53;;;1.08;;
36291;SDS011;22327;51.208;6.418;2023-08-07T10:31:28;2.40;;;0.90;;
36291;SDS011;22327;51.208;6.418;2023-08-07T10:34:30;2.85;;;0.82;;
36291;SDS011;22327;51.208;6.418;2023-08-07T10:37:40;1.40;;;0.65;;
36291;SDS011;22327;51.208;6.418;2023-08-07T10:44:02;3.00;;;1.00;;
36291;SDS011;22327;51.208;6.418;2023-08-07T10:47:03;1.50;;;0.80;;
36291;SDS011;22327;51.208;6.418;2023-08-07T10:50:04;2.33;;;0.93;;
36291;SDS011;22327;51.208;6.418;2023-08-07T10:53:05;5.30;;;1.45;;
36291;SDS011;22327;51.208;6.418;2023-08-07T10:56:08;2.25;;;0.88;;
36291;SDS011;22327;51.208;6.418;2023-08-07T10:59:09;5.20;;;1.33;;
36291;SDS011;22327;51.208;6.418;2023-08-07T11:02:11;2.20;;;0.90;;
36291;SDS011;22327;51.208;6.418;2023-08-07T11:05:12;2.55;;;1.15;;
36291;SDS011;22327;51.208;6.418;2023-08-07T11:08:13;5.47;;;1.50;;
36291;SDS011;22327;51.208;6.418;2023-08-07T11:11:13;5.38;;;1.52;;
36291;SDS011;22327;51.208;6.418;2023-08-07T11:14:18;3.83;;;1.02;;
36291;SDS011;22327;51.208;6.418;2023-08-07T11:17:19;4.05;;;1.13;;
36291;SDS011;22327;51.208;6.418;2023-08-07T11:20:19;1.50;;;0.95;;
36291;SDS011;22327;51.208;6.418;2023-08-07T11:23:26;1.60;;;1.02;;
36291;SDS011;22327;51.208;6.418;2023-08-07T11:26:28;2.60;;;1.60;;
36291;SDS011;22327;51.208;6.418;2023-08-07T11:29:28;2.15;;;1.17;;
36291;SDS011;22327;51.208;6.418;2023-08-07T11:32:30;2.55;;;1.25;;
36291;SDS011;22327;51.208;6.418;2023-08-07T11:35:31;2.60;;;0.98;;
36291;SDS011;22327;51.208;6.418;2023-08-07T11:38:33;3.85;;;1.23;;
36291;SDS011;22327;51.208;6.418;2023-08-07T11:41:35;1.88;;;1.10;;
36291;SDS011;22327;51.208;6.418;2023-08-07T11:44:35;2.38;;;0.80;;
36291;SDS011;22327;51.208;6.418;2023-08-07T11:47:36;2.72;;;1.45;;
36291;SDS011;22327;51.208;6.418;2023-08-07T11:50:37;3.45;;;0.90;;
36291;SDS011;22327;51.208;6.418;2023-08-07T11:53:38;2.45;;;0.95;;
36291;SDS011;22327;51.208;6.418;2023-08-07T11:56:40;2.53;;;0.93;;
36291;SDS011;22327;51.208;6.418;2023-08-07T11:59:43;3.22;;;0.80;;
36291;SDS011;22327;51.208;6.418;2023-08-07T12:02:47;2.53;;;0.82;;
36291;SDS011;22327;51.208;6.418;2023-08-07T12:05:48;1.60;;;0.70;;
36291;SDS011;22327;51.208;6.418;2023-08-07T12:08:49;4.78;;;1.10;;
36291;SDS011;22327;51.208;6.418;2023-08-07T12:11:57;3.35;;;0.90;;
36291;SDS011;22327;51.208;6.418;2023-08-07T12:14:58;3.25;;;1.20;;
36291;SDS011;22327;51.208;6.418;2023-08-07T12:18:00;1.92;;;0.85;;
36291;SDS011;22327;51.208;6.418;2023-08-07T12:21:02;3.33;;;1.30;;
36291;SDS011;22327;51.208;6.418;2023-08-07T12:24:04;1.13;;;0.88;;
36291;SDS011;22327;51.208;6.418;2023-08-07T12:27:07;1.03;;;0.90;;
36291;SDS011;22327;51.208;6.418;2023-08-07T12:30:08;2.25;;;1.00;;
36291;SDS011;22327;51.208;6.418;2023-08-07T12:33:09;3.63;;;1.00;;
36291;SDS011;22327;51.208;6.418;2023-08-07T12:36:09;3.35;;;1.15;;
36291;SDS011;22327;51.208;6.418;2023-08-07T12:39:10;2.35;;;1.27;;
36291;SDS011;22327;51.208;6.418;2023-08-07T12:42:11;2.65;;;1.10;;
36291;SDS011;22327;51.208;6.418;2023-08-07T12:45:11;1.35;;;0.80;;
36291;SDS011;22327;51.208;6.418;2023-08-07T12:48:12;1.85;;;0.95;;
36291;SDS011;22327;51.208;6.418;2023-08-07T12:51:12;1.55;;;0.95;;
36291;SDS011;22327;51.208;6.418;2023-08-07T12:54:13;1.88;;;0.90;;
36291;SDS011;22327;51.208;6.418;2023-08-07T12:57:13;3.92;;;1.10;;
36291;SDS011;22327;51.208;6.418;2023-08-07T13:00:14;4.88;;;1.02;;
36291;SDS011;22327;51.208;6.418;2023-08-07T13:03:16;4.43;;;1.10;;
36291;SDS011;22327;51.208;6.418;2023-08-07T13:06:16;1.67;;;1.00;;
36291;SDS011;22327;51.208;6.418;2023-08-07T13:09:17;1.63;;;1.00;;
36291;SDS011;22327;51.208;6.418;2023-08-07T13:12:17;1.98;;;0.80;;
36291;SDS011;22327;51.208;6.418;2023-08-07T13:15:18;2.83;;;1.30;;
36291;SDS011;22327;51.208;6.418;2023-08-07T13:18:19;3.53;;;1.42;;
36291;SDS011;22327;51.208;6.418;2023-08-07T13:21:19;3.38;;;1.25;;
36291;SDS011;22327;51.208;6.418;2023-08-07T13:24:20;2.97;;;1.10;;
36291;SDS011;22327;51.208;6.418;2023-08-07T13:27:20;5.10;;;1.85;;
36291;SDS011;22327;51.208;6.418;2023-08-07T13:30:21;4.15;;;1.58;;
36291;SDS011;22327;51.208;6.418;2023-08-07T13:33:21;3.55;;;1.17;;
36291;SDS011;22327;51.208;6.418;2023-08-07T13:36:22;2.80;;;0.82;;
36291;SDS011;22327;51.208;6.418;2023-08-07T13:39:23;2.40;;;1.08;;
36291;SDS011;22327;51.208;6.418;2023-08-07T13:42:24;3.80;;;1.20;;
36291;SDS011;22327;51.208;6.418;2023-08-07T13:45:26;4.32;;;1.25;;
36291;SDS011;22327;51.208;6.418;2023-08-07T13:48:26;2.65;;;1.33;;
36291;SDS011;22327;51.208;6.418;2023-08-07T13:51:28;1.92;;;1.10;;
36291;SDS011;22327;51.208;6.418;2023-08-07T13:54:28;2.45;;;1.20;;
36291;SDS011;22327;51.208;6.418;2023-08-07T13:57:29;3.10;;;1.10;;
36291;SDS011;22327;51.208;6.418;2023-08-07T14:00:29;3.80;;;1.50;;
36291;SDS011;22327;51.208;6.418;2023-08-07T14:03:30;4.88;;;1.45;;
36291;SDS011;22327;51.208;6.418;2023-08-07T14:06:31;3.15;;;1.25;;
36291;SDS011;22327;51.208;6.418;2023-08-07T14:09:32;3.80;;;1.20;;
36291;SDS011;22327;51.208;6.418;2023-08-07T14:12:32;3.75;;;1.48;;
36291;SDS011;22327;51.208;6.418;2023-08-07T14:15:33;1.83;;;1.10;;
36291;SDS011;22327;51.208;6.418;2023-08-07T14:18:33;2.20;;;1.58;;
36291;SDS011;22327;51.208;6.418;2023-08-07T14:21:34;6.03;;;1.10;;
36291;SDS011;22327;51.208;6.418;2023-08-07T14:24:34;4.28;;;1.10;;
36291;SDS011;22327;51.208;6.418;2023-08-07T14:27:35;3.47;;;1.77;;
36291;SDS011;22327;51.208;6.418;2023-08-07T14:30:35;3.28;;;1.17;;
36291;SDS011;22327;51.208;6.418;2023-08-07T14:33:37;2.60;;;1.27;;
36291;SDS011;22327;51.208;6.418;2023-08-07T14:36:37;2.90;;;1.25;;
36291;SDS011;22327;51.208;6.418;2023-08-07T14:39:38;3.30;;;1.23;;
36291;SDS011;22327;51.208;6.418;2023-08-07T14:42:38;3.50;;;1.65;;
36291;SDS011;22327;51.208;6.418;2023-08-07T14:45:39;5.78;;;1.63;;
36291;SDS011;22327;51.208;6.418;2023-08-07T14:48:40;3.20;;;1.23;;
36291;SDS011;22327;51.208;6.418;2023-08-07T14:51:40;5.68;;;1.30;;
36291;SDS011;22327;51.208;6.418;2023-08-07T14:54:42;2.35;;;1.00;;
36291;SDS011;22327;51.208;6.418;2023-08-07T14:57:42;2.78;;;1.17;;
36291;SDS011;22327;51.208;6.418;2023-08-07T15:00:43;3.83;;;1.42;;
36291;SDS011;22327;51.208;6.418;2023-08-07T15:03:43;2.08;;;1.23;;
36291;SDS011;22327;51.208;6.418;2023-08-07T15:06:44;5.82;;;2.67;;
36291;SDS011;22327;51.208;6.418;2023-08-07T15:12:50;5.28;;;1.90;;
36291;SDS011;22327;51.208;6.418;2023-08-07T15:15:50;2.22;;;1.20;;
36291;SDS011;22327;51.208;6.418;2023-08-07T15:18:51;4.57;;;2.50;;
36291;SDS011;22327;51.208;6.418;2023-08-07T15:21:51;5.95;;;2.13;;
36291;SDS011;22327;51.208;6.418;2023-08-07T15:24:52;3.00;;;1.73;;
36291;SDS011;22327;51.208;6.418;2023-08-07T15:27:52;2.65;;;1.23;;
36291;SDS011;22327;51.208;6.418;2023-08-07T15:30:54;1.98;;;1.10;;
36291;SDS011;22327;51.208;6.418;2023-08-07T15:33:55;1.52;;;0.90;;
36291;SDS011;22327;51.208;6.418;2023-08-07T15:36:57;3.22;;;0.93;;
36291;SDS011;22327;51.208;6.418;2023-08-07T15:39:58;1.98;;;0.75;;
36291;SDS011;22327;51.208;6.418;2023-08-07T15:42:58;2.55;;;0.80;;
36291;SDS011;22327;51.208;6.418;2023-08-07T15:45:59;1.23;;;0.90;;
36291;SDS011;22327;51.208;6.418;2023-08-07T15:48:59;1.88;;;0.95;;
36291;SDS011;22327;51.208;6.418;2023-08-07T15:52:00;1.25;;;0.98;;
36291;SDS011;22327;51.208;6.418;2023-08-07T15:55:00;3.20;;;0.93;;
36291;SDS011;22327;51.208;6.418;2023-08-07T15:58:04;2.45;;;1.45;;
36291;SDS011;22327;51.208;6.418;2023-08-07T16:01:06;3.05;;;1.13;;
36291;SDS011;22327;51.208;6.418;2023-08-07T16:04:07;2.33;;;0.80;;
36291;SDS011;22327;51.208;6.418;2023-08-07T16:07:08;3.10;;;1.10;;
36291;SDS011;22327;51.208;6.418;2023-08-07T16:10:09;2.33;;;1.50;;
36291;SDS011;22327;51.208;6.418;2023-08-07T16:13:10;2.50;;;1.42;;
36291;SDS011;22327;51.208;6.418;2023-08-07T16:16:10;2.40;;;1.42;;
36291;SDS011;22327;51.208;6.418;2023-08-07T16:19:11;2.85;;;1.10;;
36291;SDS011;22327;51.208;6.418;2023-08-07T16:22:11;3.75;;;1.23;;
36291;SDS011;22327;51.208;6.418;2023-08-07T16:25:12;1.70;;;1.13;;
36291;SDS011;22327;51.208;6.418;2023-08-07T16:28:12;1.73;;;0.93;;
36291;SDS011;22327;51.208;6.418;2023-08-07T16:31:14;1.30;;;1.08;;
36291;SDS011;22327;51.208;6.418;2023-08-07T16:34:14;4.55;;;1.58;;
36291;SDS011;22327;51.208;6.418;2023-08-07T16:37:15;3.22;;;1.20;;
36291;SDS011;22327;51.208;6.418;2023-08-07T16:40:17;2.30;;;1.25;;
36291;SDS011;22327;51.208;6.418;2023-08-07T16:43:17;2.38;;;0.85;;
36291;SDS011;22327;51.208;6.418;2023-08-07T16:46:18;4.13;;;1.45;;
36291;SDS011;22327;51.208;6.418;2023-08-07T16:49:19;2.65;;;1.20;;
36291;SDS011;22327;51.208;6.418;2023-08-07T16:52:20;1.17;;;0.80;;
36291;SDS011;22327;51.208;6.418;2023-08-07T16:55:21;1.25;;;0.70;;
36291;SDS011;22327;51.208;6.418;2023-08-07T16:58:21;1.17;;;0.55;;
36291;SDS011;22327;51.208;6.418;2023-08-07T17:01:22;2.90;;;0.70;;
36291;SDS011;22327;51.208;6.418;2023-08-07T17:04:23;2.92;;;0.50;;
36291;SDS011;22327;51.208;6.418;2023-08-07T17:07:23;3.10;;;0.80;;
36291;SDS011;22327;51.208;6.418;2023-08-07T17:10:24;1.15;;;0.60;;
36291;SDS011;22327;51.208;6.418;2023-08-07T17:13:24;1.25;;;0.90;;
36291;SDS011;22327;51.208;6.418;2023-08-07T17:16:25;1.75;;;1.00;;
36291;SDS011;22327;51.208;6.418;2023-08-07T17:19:26;1.80;;;1.10;;
36291;SDS011;22327;51.208;6.418;2023-08-07T17:22:27;2.17;;;0.90;;
36291;SDS011;22327;51.208;6.418;2023-08-07T17:25:27;1.67;;;0.90;;
36291;SDS011;22327;51.208;6.418;2023-08-07T17:28:28;2.83;;;1.30;;
36291;SDS011;22327;51.208;6.418;2023-08-07T17:31:29;3.08;;;0.85;;
36291;SDS011;22327;51.208;6.418;2023-08-07T17:34:30;2.05;;;0.80;;
36291;SDS011;22327;51.208;6.418;2023-08-07T17:37:30;3.28;;;1.23;;
36291;SDS011;22327;51.208;6.418;2023-08-07T17:40:31;2.65;;;0.77;;
36291;SDS011;22327;51.208;6.418;2023-08-07T17:43:31;1.50;;;0.60;;
36291;SDS011;22327;51.208;6.418;2023-08-07T17:46:32;1.00;;;0.68;;
36291;SDS011;22327;51.208;6.418;2023-08-07T17:49:33;0.80;;;0.60;;
36291;SDS011;22327;51.208;6.418;2023-08-07T17:52:39;1.38;;;0.60;;
36291;SDS011;22327;51.208;6.418;2023-08-07T17:55:40;0.77;;;0.65;;
36291;SDS011;22327;51.208;6.418;2023-08-07T17:58:40;1.77;;;0.80;;
36291;SDS011;22327;51.208;6.418;2023-08-07T18:01:41;1.17;;;0.63;;
36291;SDS011;22327;51.208;6.418;2023-08-07T18:04:41;0.70;;;0.70;;
36291;SDS011;22327;51.208;6.418;2023-08-07T18:07:42;2.25;;;0.90;;
36291;SDS011;22327;51.208;6.418;2023-08-07T18:10:43;2.08;;;0.90;;
36291;SDS011;22327;51.208;6.418;2023-08-07T18:13:43;1.33;;;0.75;;
36291;SDS011;22327;51.208;6.418;2023-08-07T18:16:44;1.73;;;1.00;;
36291;SDS011;22327;51.208;6.418;2023-08-07T18:19:44;1.38;;;0.70;;